sensor_id;sensor_type;location;lat;lon;timestamp;P1;durP1;ratioP1;P2;durP2;ratioP2
64244;SDS011;50584;29.058;-110.966;2022-08-11T00:01:14;2.05;;;1.20;;
64244;SDS011;50584;29.058;-110.966;2022-08-11T00:03:55;1.95;;;1.40;;
64244;SDS011;50584;29.058;-110.966;2022-08-11T00:06:37;1.87;;;1.30;;
64244;SDS011;50584;29.058;-110.966;2022-08-11T00:09:03;3.78;;;1.45;;
64244;SDS011;50584;29.058;-110.966;2022-08-11T00:11:37;4.53;;;1.40;;
64244;SDS011;50584;29.058;-110.966;2022-08-11T00:14:04;6.82;;;1.63;;
64244;SDS011;50584;29.058;-110.966;2022-08-11T00:16:37;2.17;;;1.50;;
64244;SDS011;50584;29.058;-110.966;2022-08-11T00:19:03;4.47;;;1.52;;
64244;SDS011;50584;29.058;-110.966;2022-08-11T00:21:29;12.65;;;1.95;;
64244;SDS011;50584;29.058;-110.966;2022-08-11T00:23:57;1.40;;;1.40;;
64244;SDS011;50584;29.058;-110.966;2022-08-11T00:26:24;4.10;;;1.40;;
64244;SDS011;50584;29.058;-110.966;2022-08-11T00:28:50;2.72;;;1.80;;
64244;SDS011;50584;29.058;-110.966;2022-08-11T00:33:48;5.55;;;1.90;;
64244;SDS011;50584;29.058;-110.966;2022-08-11T00:36:16;1.75;;;1.48;;
64244;SDS011;50584;29.058;-110.966;2022-08-11T00:38:43;14.13;;;4.57;;
64244;SDS011;50584;29.058;-110.966;2022-08-11T00:41:13;11.32;;;5.28;;
64244;SDS011;50584;29.058;-110.966;2022-08-11T00:44:27;33.53;;;11.35;;
64244;SDS011;50584;29.058;-110.966;2022-08-11T00:46:36;19.10;;;7.95;;
64244;SDS011;50584;29.058;-110.966;2022-08-11T00:49:16;11.15;;;5.47;;
64244;SDS011;50584;29.058;-110.966;2022-08-11T00:51:49;14.13;;;5.53;;
64244;SDS011;50584;29.058;-110.966;2022-08-11T01:07:25;2.25;;;1.67;;
64244;SDS011;50584;29.058;-110.966;2022-08-11T01:38:42;2.67;;;1.50;;
64244;SDS011;50584;29.058;-110.966;2022-08-11T01:50:04;4.13;;;1.77;;
64244;SDS011;50584;29.058;-110.966;2022-08-11T01:52:55;6.97;;;1.80;;
64244;SDS011;50584;29.058;-110.966;2022-08-11T01:55:26;2.08;;;1.38;;
64244;SDS011;50584;29.058;-110.966;2022-08-11T01:58:04;4.15;;;1.58;;
64244;SDS011;50584;29.058;-110.966;2022-08-11T02:03:28;2.50;;;1.85;;
64244;SDS011;50584;29.058;-110.966;2022-08-11T02:11:48;3.03;;;2.00;;
64244;SDS011;50584;29.058;-110.966;2022-08-11T02:22:50;1.95;;;1.50;;
64244;SDS011;50584;29.058;-110.966;2022-08-11T02:25:58;1.40;;;1.30;;
64244;SDS011;50584;29.058;-110.966;2022-08-11T02:34:20;6.40;;;1.50;;
64244;SDS011;50584;29.058;-110.966;2022-08-11T02:37:05;2.40;;;1.55;;
64244;SDS011;50584;29.058;-110.966;2022-08-11T02:42:41;3.50;;;1.73;;
64244;SDS011;50584;29.058;-110.966;2022-08-11T02:45:14;4.75;;;1.95;;
64244;SDS011;50584;29.058;-110.966;2022-08-11T02:50:59;7.13;;;2.03;;
64244;SDS011;50584;29.058;-110.966;2022-08-11T02:53:24;7.93;;;2.28;;
64244;SDS011;50584;29.058;-110.966;2022-08-11T02:56:01;7.03;;;3.08;;
64244;SDS011;50584;29.058;-110.966;2022-08-11T02:58:48;7.80;;;3.47;;
64244;SDS011;50584;29.058;-110.966;2022-08-11T03:01:48;7.28;;;2.95;;
64244;SDS011;50584;29.058;-110.966;2022-08-11T03:04:29;4.95;;;2.47;;
64244;SDS011;50584;29.058;-110.966;2022-08-11T03:07:07;5.32;;;3.40;;
64244;SDS011;50584;29.058;-110.966;2022-08-11T03:12:08;8.00;;;1.90;;
64244;SDS011;50584;29.058;-110.966;2022-08-11T03:20:27;5.22;;;1.80;;
64244;SDS011;50584;29.058;-110.966;2022-08-11T03:28:35;2.40;;;1.70;;
64244;SDS011;50584;29.058;-110.966;2022-08-11T03:33:32;7.05;;;2.13;;
64244;SDS011;50584;29.058;-110.966;2022-08-11T03:41:44;5.80;;;2.20;;
64244;SDS011;50584;29.058;-110.966;2022-08-11T03:49:43;3.90;;;2.65;;
64244;SDS011;50584;29.058;-110.966;2022-08-11T03:52:36;8.35;;;3.05;;
64244;SDS011;50584;29.058;-110.966;2022-08-11T04:16:00;7.00;;;2.03;;
64244;SDS011;50584;29.058;-110.966;2022-08-11T04:23:55;7.45;;;6.78;;
64244;SDS011;50584;29.058;-110.966;2022-08-11T04:42:11;3.15;;;1.70;;
64244;SDS011;50584;29.058;-110.966;2022-08-11T04:50:53;7.20;;;3.08;;
64244;SDS011;50584;29.058;-110.966;2022-08-11T05:18:44;6.70;;;2.80;;
64244;SDS011;50584;29.058;-110.966;2022-08-11T05:21:28;9.50;;;2.38;;
64244;SDS011;50584;29.058;-110.966;2022-08-11T05:24:25;6.35;;;2.00;;
64244;SDS011;50584;29.058;-110.966;2022-08-11T05:27:13;3.15;;;2.00;;
64244;SDS011;50584;29.058;-110.966;2022-08-11T05:30:03;2.33;;;1.90;;
64244;SDS011;50584;29.058;-110.966;2022-08-11T05:32:54;10.82;;;2.63;;
64244;SDS011;50584;29.058;-110.966;2022-08-11T05:35:43;6.63;;;2.70;;
64244;SDS011;50584;29.058;-110.966;2022-08-11T05:38:17;13.80;;;3.20;;
64244;SDS011;50584;29.058;-110.966;2022-08-11T05:41:03;6.53;;;2.70;;
64244;SDS011;50584;29.058;-110.966;2022-08-11T05:43:49;2.60;;;2.30;;
64244;SDS011;50584;29.058;-110.966;2022-08-11T05:46:40;2.30;;;2.10;;
64244;SDS011;50584;29.058;-110.966;2022-08-11T05:49:29;6.90;;;2.10;;
64244;SDS011;50584;29.058;-110.966;2022-08-11T05:52:20;6.75;;;2.58;;
64244;SDS011;50584;29.058;-110.966;2022-08-11T05:55:06;3.03;;;2.75;;
64244;SDS011;50584;29.058;-110.966;2022-08-11T05:58:01;3.65;;;2.45;;
64244;SDS011;50584;29.058;-110.966;2022-08-11T06:00:27;3.30;;;2.00;;
64244;SDS011;50584;29.058;-110.966;2022-08-11T06:02:55;2.78;;;1.90;;
64244;SDS011;50584;29.058;-110.966;2022-08-11T06:05:23;2.30;;;1.70;;
64244;SDS011;50584;29.058;-110.966;2022-08-11T06:07:49;3.40;;;2.15;;
64244;SDS011;50584;29.058;-110.966;2022-08-11T06:10:34;2.08;;;1.95;;
64244;SDS011;50584;29.058;-110.966;2022-08-11T06:13:00;1.70;;;1.60;;
64244;SDS011;50584;29.058;-110.966;2022-08-11T06:15:27;3.20;;;1.90;;
64244;SDS011;50584;29.058;-110.966;2022-08-11T06:17:53;2.03;;;1.58;;
64244;SDS011;50584;29.058;-110.966;2022-08-11T06:20:19;2.80;;;1.90;;
64244;SDS011;50584;29.058;-110.966;2022-08-11T06:22:47;2.35;;;1.90;;
64244;SDS011;50584;29.058;-110.966;2022-08-11T06:25:20;2.55;;;1.75;;
64244;SDS011;50584;29.058;-110.966;2022-08-11T06:27:46;5.20;;;1.70;;
64244;SDS011;50584;29.058;-110.966;2022-08-11T06:30:22;6.15;;;1.88;;
64244;SDS011;50584;29.058;-110.966;2022-08-11T06:32:57;1.80;;;1.70;;
64244;SDS011;50584;29.058;-110.966;2022-08-11T06:39:08;1.83;;;1.73;;
64244;SDS011;50584;29.058;-110.966;2022-08-11T06:41:00;2.03;;;1.92;;
64244;SDS011;50584;29.058;-110.966;2022-08-11T06:46:28;3.67;;;1.77;;
64244;SDS011;50584;29.058;-110.966;2022-08-11T06:48:55;4.90;;;2.00;;
64244;SDS011;50584;29.058;-110.966;2022-08-11T06:51:21;5.28;;;2.03;;
64244;SDS011;50584;29.058;-110.966;2022-08-11T06:53:51;3.00;;;2.00;;
64244;SDS011;50584;29.058;-110.966;2022-08-11T06:56:22;3.47;;;2.17;;
64244;SDS011;50584;29.058;-110.966;2022-08-11T06:59:06;5.65;;;2.65;;
64244;SDS011;50584;29.058;-110.966;2022-08-11T07:04:29;2.38;;;2.17;;
64244;SDS011;50584;29.058;-110.966;2022-08-11T07:07:10;8.02;;;2.50;;
64244;SDS011;50584;29.058;-110.966;2022-08-11T07:12:59;2.40;;;2.28;;
64244;SDS011;50584;29.058;-110.966;2022-08-11T07:15:43;2.28;;;2.08;;
64244;SDS011;50584;29.058;-110.966;2022-08-11T07:18:19;5.13;;;2.10;;
64244;SDS011;50584;29.058;-110.966;2022-08-11T07:21:09;2.03;;;1.92;;
64244;SDS011;50584;29.058;-110.966;2022-08-11T07:23:54;4.72;;;2.20;;
64244;SDS011;50584;29.058;-110.966;2022-08-11T07:26:40;6.68;;;2.08;;
64244;SDS011;50584;29.058;-110.966;2022-08-11T07:29:26;3.90;;;2.08;;
64244;SDS011;50584;29.058;-110.966;2022-08-11T07:31:53;4.22;;;2.17;;
64244;SDS011;50584;29.058;-110.966;2022-08-11T07:36:52;14.00;;;2.60;;
64244;SDS011;50584;29.058;-110.966;2022-08-11T07:39:23;4.55;;;2.58;;
64244;SDS011;50584;29.058;-110.966;2022-08-11T07:41:51;2.45;;;2.20;;
64244;SDS011;50584;29.058;-110.966;2022-08-11T07:44:17;2.85;;;2.65;;
64244;SDS011;50584;29.058;-110.966;2022-08-11T07:46:47;4.03;;;2.70;;
64244;SDS011;50584;29.058;-110.966;2022-08-11T07:49:33;3.10;;;2.65;;
64244;SDS011;50584;29.058;-110.966;2022-08-11T07:52:18;3.38;;;3.00;;
64244;SDS011;50584;29.058;-110.966;2022-08-11T07:54:55;3.75;;;2.30;;
64244;SDS011;50584;29.058;-110.966;2022-08-11T07:57:22;2.90;;;2.55;;
64244;SDS011;50584;29.058;-110.966;2022-08-11T08:00:06;3.65;;;2.55;;
64244;SDS011;50584;29.058;-110.966;2022-08-11T08:02:51;2.95;;;2.25;;
64244;SDS011;50584;29.058;-110.966;2022-08-11T08:05:35;2.28;;;2.10;;
64244;SDS011;50584;29.058;-110.966;2022-08-11T08:08:20;2.10;;;1.90;;
64244;SDS011;50584;29.058;-110.966;2022-08-11T08:11:04;5.35;;;2.42;;
64244;SDS011;50584;29.058;-110.966;2022-08-11T08:13:48;4.25;;;2.10;;
64244;SDS011;50584;29.058;-110.966;2022-08-11T08:16:32;2.88;;;2.00;;
64244;SDS011;50584;29.058;-110.966;2022-08-11T08:19:18;2.05;;;1.90;;
64244;SDS011;50584;29.058;-110.966;2022-08-11T08:21:44;2.47;;;1.90;;
64244;SDS011;50584;29.058;-110.966;2022-08-11T08:24:11;3.47;;;1.80;;
64244;SDS011;50584;29.058;-110.966;2022-08-11T08:26:38;6.72;;;2.13;;
64244;SDS011;50584;29.058;-110.966;2022-08-11T08:29:22;2.70;;;1.80;;
64244;SDS011;50584;29.058;-110.966;2022-08-11T08:32:07;2.00;;;1.90;;
64244;SDS011;50584;29.058;-110.966;2022-08-11T08:34:34;2.05;;;1.88;;
64244;SDS011;50584;29.058;-110.966;2022-08-11T08:37:00;3.08;;;2.08;;
64244;SDS011;50584;29.058;-110.966;2022-08-11T08:39:26;2.35;;;1.92;;
64244;SDS011;50584;29.058;-110.966;2022-08-11T08:41:53;2.05;;;1.95;;
64244;SDS011;50584;29.058;-110.966;2022-08-11T08:44:20;3.72;;;2.00;;
64244;SDS011;50584;29.058;-110.966;2022-08-11T08:46:47;2.20;;;2.10;;
64244;SDS011;50584;29.058;-110.966;2022-08-11T08:49:15;2.60;;;2.15;;
64244;SDS011;50584;29.058;-110.966;2022-08-11T08:51:41;1.98;;;1.88;;
64244;SDS011;50584;29.058;-110.966;2022-08-11T08:54:13;2.33;;;1.95;;
64244;SDS011;50584;29.058;-110.966;2022-08-11T08:56:41;2.47;;;2.28;;
64244;SDS011;50584;29.058;-110.966;2022-08-11T08:59:08;3.88;;;2.00;;
64244;SDS011;50584;29.058;-110.966;2022-08-11T09:01:36;2.13;;;1.90;;
64244;SDS011;50584;29.058;-110.966;2022-08-11T09:04:05;1.80;;;1.70;;
64244;SDS011;50584;29.058;-110.966;2022-08-11T09:06:33;3.13;;;2.53;;
64244;SDS011;50584;29.058;-110.966;2022-08-11T09:09:00;1.98;;;1.63;;
64244;SDS011;50584;29.058;-110.966;2022-08-11T09:11:25;2.10;;;2.00;;
64244;SDS011;50584;29.058;-110.966;2022-08-11T09:14:24;3.25;;;1.80;;
64244;SDS011;50584;29.058;-110.966;2022-08-11T09:17:10;3.88;;;2.00;;
64244;SDS011;50584;29.058;-110.966;2022-08-11T09:19:37;3.40;;;1.90;;
64244;SDS011;50584;29.058;-110.966;2022-08-11T09:22:03;2.13;;;2.03;;
64244;SDS011;50584;29.058;-110.966;2022-08-11T09:24:47;2.40;;;2.20;;
64244;SDS011;50584;29.058;-110.966;2022-08-11T09:27:31;2.42;;;2.22;;
64244;SDS011;50584;29.058;-110.966;2022-08-11T09:29:57;3.38;;;2.40;;
64244;SDS011;50584;29.058;-110.966;2022-08-11T09:32:24;2.78;;;1.90;;
64244;SDS011;50584;29.058;-110.966;2022-08-11T09:34:53;2.17;;;1.95;;
64244;SDS011;50584;29.058;-110.966;2022-08-11T09:37:19;2.20;;;2.00;;
64244;SDS011;50584;29.058;-110.966;2022-08-11T09:40:05;2.13;;;1.75;;
64244;SDS011;50584;29.058;-110.966;2022-08-11T09:42:49;2.90;;;2.08;;
64244;SDS011;50584;29.058;-110.966;2022-08-11T09:45:34;2.58;;;1.77;;
64244;SDS011;50584;29.058;-110.966;2022-08-11T09:48:02;1.90;;;1.80;;
64244;SDS011;50584;29.058;-110.966;2022-08-11T09:50:30;1.77;;;1.67;;
64244;SDS011;50584;29.058;-110.966;2022-08-11T09:52:57;3.33;;;2.00;;
64244;SDS011;50584;29.058;-110.966;2022-08-11T09:55:24;10.35;;;2.10;;
64244;SDS011;50584;29.058;-110.966;2022-08-11T09:57:50;3.72;;;1.67;;
64244;SDS011;50584;29.058;-110.966;2022-08-11T10:00:35;2.70;;;1.95;;
64244;SDS011;50584;29.058;-110.966;2022-08-11T10:03:17;1.90;;;1.80;;
64244;SDS011;50584;29.058;-110.966;2022-08-11T10:05:44;4.13;;;1.95;;
64244;SDS011;50584;29.058;-110.966;2022-08-11T10:08:29;5.10;;;1.80;;
64244;SDS011;50584;29.058;-110.966;2022-08-11T10:10:57;3.88;;;2.22;;
64244;SDS011;50584;29.058;-110.966;2022-08-11T10:13:30;1.92;;;1.77;;
64244;SDS011;50584;29.058;-110.966;2022-08-11T10:16:01;3.58;;;1.75;;
64244;SDS011;50584;29.058;-110.966;2022-08-11T10:18:29;2.42;;;2.00;;
64244;SDS011;50584;29.058;-110.966;2022-08-11T10:23:54;2.22;;;1.70;;
64244;SDS011;50584;29.058;-110.966;2022-08-11T10:26:40;1.83;;;1.73;;
64244;SDS011;50584;29.058;-110.966;2022-08-11T10:29:16;8.00;;;1.95;;
64244;SDS011;50584;29.058;-110.966;2022-08-11T10:32:00;1.80;;;1.70;;
64244;SDS011;50584;29.058;-110.966;2022-08-11T10:34:46;2.85;;;1.80;;
64244;SDS011;50584;29.058;-110.966;2022-08-11T10:37:12;2.08;;;1.80;;
64244;SDS011;50584;29.058;-110.966;2022-08-11T10:39:38;2.00;;;1.90;;
64244;SDS011;50584;29.058;-110.966;2022-08-11T10:42:05;2.92;;;2.10;;
64244;SDS011;50584;29.058;-110.966;2022-08-11T10:44:50;2.13;;;2.03;;
64244;SDS011;50584;29.058;-110.966;2022-08-11T10:47:17;3.75;;;2.15;;
64244;SDS011;50584;29.058;-110.966;2022-08-11T10:49:59;3.63;;;2.35;;
64244;SDS011;50584;29.058;-110.966;2022-08-11T10:52:45;2.70;;;2.50;;
64244;SDS011;50584;29.058;-110.966;2022-08-11T10:55:30;3.45;;;2.33;;
64244;SDS011;50584;29.058;-110.966;2022-08-11T10:58:14;4.32;;;3.17;;
64244;SDS011;50584;29.058;-110.966;2022-08-11T11:00:59;5.50;;;2.63;;
64244;SDS011;50584;29.058;-110.966;2022-08-11T11:03:25;4.82;;;2.70;;
64244;SDS011;50584;29.058;-110.966;2022-08-11T11:05:53;4.80;;;2.47;;
64244;SDS011;50584;29.058;-110.966;2022-08-11T11:08:22;5.05;;;2.90;;
64244;SDS011;50584;29.058;-110.966;2022-08-11T11:11:09;2.53;;;2.33;;
64244;SDS011;50584;29.058;-110.966;2022-08-11T11:13:37;3.05;;;2.20;;
64244;SDS011;50584;29.058;-110.966;2022-08-11T11:16:22;2.08;;;1.98;;
64244;SDS011;50584;29.058;-110.966;2022-08-11T11:18:50;2.92;;;2.10;;
64244;SDS011;50584;29.058;-110.966;2022-08-11T11:21:17;2.47;;;2.30;;
64244;SDS011;50584;29.058;-110.966;2022-08-11T11:39:28;2.50;;;2.30;;
64244;SDS011;50584;29.058;-110.966;2022-08-11T11:41:56;3.20;;;2.08;;
64244;SDS011;50584;29.058;-110.966;2022-08-11T11:44:22;3.13;;;1.98;;
64244;SDS011;50584;29.058;-110.966;2022-08-11T11:46:49;2.40;;;2.20;;
64244;SDS011;50584;29.058;-110.966;2022-08-11T11:49:19;3.58;;;2.05;;
64244;SDS011;50584;29.058;-110.966;2022-08-11T11:51:45;4.95;;;2.03;;
64244;SDS011;50584;29.058;-110.966;2022-08-11T11:54:14;3.10;;;1.98;;
64244;SDS011;50584;29.058;-110.966;2022-08-11T11:56:41;2.40;;;1.98;;
64244;SDS011;50584;29.058;-110.966;2022-08-11T11:59:07;4.43;;;2.15;;
64244;SDS011;50584;29.058;-110.966;2022-08-11T12:01:53;2.67;;;1.85;;
64244;SDS011;50584;29.058;-110.966;2022-08-11T12:04:19;2.05;;;1.95;;
64244;SDS011;50584;29.058;-110.966;2022-08-11T12:06:45;6.88;;;2.53;;
64244;SDS011;50584;29.058;-110.966;2022-08-11T12:09:11;6.95;;;1.88;;
64244;SDS011;50584;29.058;-110.966;2022-08-11T12:11:47;2.38;;;2.20;;
64244;SDS011;50584;29.058;-110.966;2022-08-11T12:14:32;1.98;;;1.88;;
64244;SDS011;50584;29.058;-110.966;2022-08-11T12:16:58;1.90;;;1.80;;
64244;SDS011;50584;29.058;-110.966;2022-08-11T12:19:25;1.88;;;1.77;;
64244;SDS011;50584;29.058;-110.966;2022-08-11T12:21:55;2.03;;;1.92;;
64244;SDS011;50584;29.058;-110.966;2022-08-11T12:24:40;2.58;;;2.08;;
64244;SDS011;50584;29.058;-110.966;2022-08-11T12:27:25;2.75;;;2.08;;
64244;SDS011;50584;29.058;-110.966;2022-08-11T12:29:55;7.80;;;1.80;;
64244;SDS011;50584;29.058;-110.966;2022-08-11T12:32:23;3.47;;;2.20;;
64244;SDS011;50584;29.058;-110.966;2022-08-11T12:34:50;2.15;;;2.00;;
64244;SDS011;50584;29.058;-110.966;2022-08-11T12:37:19;2.80;;;1.95;;
64244;SDS011;50584;29.058;-110.966;2022-08-11T12:39:48;2.47;;;2.28;;
64244;SDS011;50584;29.058;-110.966;2022-08-11T12:42:33;2.40;;;2.30;;
64244;SDS011;50584;29.058;-110.966;2022-08-11T12:45:18;2.75;;;2.35;;
64244;SDS011;50584;29.058;-110.966;2022-08-11T12:47:58;4.63;;;2.33;;
64244;SDS011;50584;29.058;-110.966;2022-08-11T12:50:44;2.40;;;2.25;;
64244;SDS011;50584;29.058;-110.966;2022-08-11T12:53:30;2.20;;;2.00;;
64244;SDS011;50584;29.058;-110.966;2022-08-11T12:55:58;2.60;;;2.30;;
64244;SDS011;50584;29.058;-110.966;2022-08-11T12:58:45;2.08;;;1.98;;
64244;SDS011;50584;29.058;-110.966;2022-08-11T13:01:13;4.07;;;2.33;;
64244;SDS011;50584;29.058;-110.966;2022-08-11T13:03:58;2.92;;;2.30;;
64244;SDS011;50584;29.058;-110.966;2022-08-11T13:06:42;4.05;;;2.28;;
64244;SDS011;50584;29.058;-110.966;2022-08-11T13:09:08;4.47;;;2.00;;
64244;SDS011;50584;29.058;-110.966;2022-08-11T13:11:35;2.25;;;2.13;;
64244;SDS011;50584;29.058;-110.966;2022-08-11T13:14:21;4.75;;;2.15;;
64244;SDS011;50584;29.058;-110.966;2022-08-11T13:16:47;2.35;;;1.90;;
64244;SDS011;50584;29.058;-110.966;2022-08-11T13:19:32;4.47;;;1.90;;
64244;SDS011;50584;29.058;-110.966;2022-08-11T13:21:58;13.27;;;2.63;;
64244;SDS011;50584;29.058;-110.966;2022-08-11T13:24:26;4.00;;;1.95;;
64244;SDS011;50584;29.058;-110.966;2022-08-11T13:26:52;2.67;;;1.92;;
64244;SDS011;50584;29.058;-110.966;2022-08-11T13:29:22;3.58;;;1.83;;
64244;SDS011;50584;29.058;-110.966;2022-08-11T13:31:49;6.70;;;2.13;;
64244;SDS011;50584;29.058;-110.966;2022-08-11T13:34:16;6.18;;;3.13;;
64244;SDS011;50584;29.058;-110.966;2022-08-11T13:36:42;111.70;;;45.58;;
64244;SDS011;50584;29.058;-110.966;2022-08-11T13:39:09;19.63;;;8.88;;
64244;SDS011;50584;29.058;-110.966;2022-08-11T13:41:34;1003.55;;;404.10;;
64244;SDS011;50584;29.058;-110.966;2022-08-11T13:44:05;1071.30;;;438.35;;
64244;SDS011;50584;29.058;-110.966;2022-08-11T13:46:31;1139.00;;;421.98;;
64244;SDS011;50584;29.058;-110.966;2022-08-11T13:48:58;117.38;;;33.67;;
64244;SDS011;50584;29.058;-110.966;2022-08-11T13:51:24;383.88;;;104.85;;
64244;SDS011;50584;29.058;-110.966;2022-08-11T13:54:07;29.42;;;8.73;;
64244;SDS011;50584;29.058;-110.966;2022-08-11T13:56:34;148.50;;;41.53;;
64244;SDS011;50584;29.058;-110.966;2022-08-11T13:59:00;119.20;;;30.40;;
64244;SDS011;50584;29.058;-110.966;2022-08-11T14:01:29;2.63;;;2.17;;
64244;SDS011;50584;29.058;-110.966;2022-08-11T14:03:57;36.13;;;12.13;;
64244;SDS011;50584;29.058;-110.966;2022-08-11T14:06:25;46.42;;;14.38;;
64244;SDS011;50584;29.058;-110.966;2022-08-11T14:08:51;11.75;;;4.25;;
64244;SDS011;50584;29.058;-110.966;2022-08-11T14:11:18;15.38;;;2.85;;
64244;SDS011;50584;29.058;-110.966;2022-08-11T14:14:03;6.28;;;2.47;;
64244;SDS011;50584;29.058;-110.966;2022-08-11T14:16:32;3.65;;;2.47;;
64244;SDS011;50584;29.058;-110.966;2022-08-11T14:19:03;3.35;;;2.00;;
64244;SDS011;50584;29.058;-110.966;2022-08-11T14:21:32;3.58;;;1.73;;
64244;SDS011;50584;29.058;-110.966;2022-08-11T14:24:18;3.38;;;2.25;;
64244;SDS011;50584;29.058;-110.966;2022-08-11T14:26:44;12.73;;;3.95;;
64244;SDS011;50584;29.058;-110.966;2022-08-11T14:29:13;4.07;;;2.00;;
64244;SDS011;50584;29.058;-110.966;2022-08-11T14:31:43;4.13;;;2.42;;
64244;SDS011;50584;29.058;-110.966;2022-08-11T14:34:09;8.90;;;2.38;;
64244;SDS011;50584;29.058;-110.966;2022-08-11T14:36:39;2.05;;;1.85;;
64244;SDS011;50584;29.058;-110.966;2022-08-11T14:39:13;4.57;;;1.90;;
64244;SDS011;50584;29.058;-110.966;2022-08-11T14:41:47;8.48;;;2.33;;
64244;SDS011;50584;29.058;-110.966;2022-08-11T14:44:33;24.63;;;3.13;;
64244;SDS011;50584;29.058;-110.966;2022-08-11T14:47:17;7.07;;;2.17;;
64244;SDS011;50584;29.058;-110.966;2022-08-11T14:49:44;2.08;;;1.40;;
64244;SDS011;50584;29.058;-110.966;2022-08-11T14:52:11;4.35;;;1.58;;
64244;SDS011;50584;29.058;-110.966;2022-08-11T14:57:24;1.38;;;1.10;;
64244;SDS011;50584;29.058;-110.966;2022-08-11T14:59:52;2.45;;;1.63;;
64244;SDS011;50584;29.058;-110.966;2022-08-11T15:02:20;2.80;;;1.20;;
64244;SDS011;50584;29.058;-110.966;2022-08-11T15:05:05;3.53;;;1.30;;
64244;SDS011;50584;29.058;-110.966;2022-08-11T15:07:31;5.25;;;1.30;;
64244;SDS011;50584;29.058;-110.966;2022-08-11T15:09:58;2.45;;;1.40;;
64244;SDS011;50584;29.058;-110.966;2022-08-11T15:12:24;1.15;;;1.15;;
64244;SDS011;50584;29.058;-110.966;2022-08-11T15:14:50;1.65;;;1.20;;
64244;SDS011;50584;29.058;-110.966;2022-08-11T15:17:35;2.90;;;1.30;;
64244;SDS011;50584;29.058;-110.966;2022-08-11T15:20:03;3.38;;;1.27;;
64244;SDS011;50584;29.058;-110.966;2022-08-11T15:22:49;1.23;;;1.17;;
64244;SDS011;50584;29.058;-110.966;2022-08-11T15:25:34;3.22;;;1.20;;
64244;SDS011;50584;29.058;-110.966;2022-08-11T15:28:01;7.93;;;1.83;;
64244;SDS011;50584;29.058;-110.966;2022-08-11T15:30:46;6.65;;;1.38;;
64244;SDS011;50584;29.058;-110.966;2022-08-11T15:33:34;2.95;;;1.20;;
64244;SDS011;50584;29.058;-110.966;2022-08-11T15:36:19;3.03;;;1.38;;
64244;SDS011;50584;29.058;-110.966;2022-08-11T15:39:23;0.82;;;0.82;;
64244;SDS011;50584;29.058;-110.966;2022-08-11T15:42:08;1.85;;;1.20;;
64244;SDS011;50584;29.058;-110.966;2022-08-11T15:44:55;1.95;;;1.23;;
64244;SDS011;50584;29.058;-110.966;2022-08-11T15:47:41;1.38;;;0.95;;
64244;SDS011;50584;29.058;-110.966;2022-08-11T15:50:09;1.33;;;0.98;;
64244;SDS011;50584;29.058;-110.966;2022-08-11T15:52:40;3.40;;;1.02;;
64244;SDS011;50584;29.058;-110.966;2022-08-11T15:55:08;2.22;;;1.05;;
64244;SDS011;50584;29.058;-110.966;2022-08-11T15:57:34;3.50;;;1.10;;
64244;SDS011;50584;29.058;-110.966;2022-08-11T16:00:19;4.28;;;1.27;;
64244;SDS011;50584;29.058;-110.966;2022-08-11T16:03:03;2.15;;;0.90;;
64244;SDS011;50584;29.058;-110.966;2022-08-11T16:05:49;2.05;;;0.90;;
64244;SDS011;50584;29.058;-110.966;2022-08-11T16:08:15;0.98;;;0.95;;
64244;SDS011;50584;29.058;-110.966;2022-08-11T16:10:42;1.40;;;0.90;;
64244;SDS011;50584;29.058;-110.966;2022-08-11T16:13:08;2.08;;;1.00;;
64244;SDS011;50584;29.058;-110.966;2022-08-11T16:15:35;3.25;;;1.00;;
64244;SDS011;50584;29.058;-110.966;2022-08-11T16:18:20;0.82;;;0.82;;
64244;SDS011;50584;29.058;-110.966;2022-08-11T16:20:49;1.92;;;0.93;;
64244;SDS011;50584;29.058;-110.966;2022-08-11T16:23:16;1.90;;;0.98;;
64244;SDS011;50584;29.058;-110.966;2022-08-11T16:25:42;12.88;;;4.97;;
64244;SDS011;50584;29.058;-110.966;2022-08-11T16:28:09;13.88;;;6.88;;
64244;SDS011;50584;29.058;-110.966;2022-08-11T16:30:38;7.50;;;3.13;;
64244;SDS011;50584;29.058;-110.966;2022-08-11T16:33:04;5.47;;;3.55;;
64244;SDS011;50584;29.058;-110.966;2022-08-11T16:35:32;6.88;;;1.38;;
64244;SDS011;50584;29.058;-110.966;2022-08-11T16:38:17;1.20;;;1.10;;
64244;SDS011;50584;29.058;-110.966;2022-08-11T16:41:07;1.85;;;1.05;;
64244;SDS011;50584;29.058;-110.966;2022-08-11T16:43:34;2.92;;;0.90;;
64244;SDS011;50584;29.058;-110.966;2022-08-11T16:46:21;1.70;;;1.23;;
64244;SDS011;50584;29.058;-110.966;2022-08-11T16:49:11;3.30;;;0.77;;
64244;SDS011;50584;29.058;-110.966;2022-08-11T16:51:37;3.20;;;1.50;;
64244;SDS011;50584;29.058;-110.966;2022-08-11T16:54:03;1.77;;;0.80;;
64244;SDS011;50584;29.058;-110.966;2022-08-11T16:59:03;2.78;;;1.50;;
64244;SDS011;50584;29.058;-110.966;2022-08-11T17:01:50;1.52;;;0.90;;
64244;SDS011;50584;29.058;-110.966;2022-08-11T17:07:04;1.80;;;1.00;;
64244;SDS011;50584;29.058;-110.966;2022-08-11T17:09:49;1.42;;;1.02;;
64244;SDS011;50584;29.058;-110.966;2022-08-11T17:12:35;1.73;;;1.20;;
64244;SDS011;50584;29.058;-110.966;2022-08-11T17:15:20;0.73;;;0.73;;
64244;SDS011;50584;29.058;-110.966;2022-08-11T17:18:05;0.90;;;0.90;;
64244;SDS011;50584;29.058;-110.966;2022-08-11T17:20:32;0.90;;;0.90;;
64244;SDS011;50584;29.058;-110.966;2022-08-11T17:22:58;1.70;;;1.00;;
64244;SDS011;50584;29.058;-110.966;2022-08-11T17:25:42;1.38;;;1.00;;
64244;SDS011;50584;29.058;-110.966;2022-08-11T17:28:09;1.80;;;1.05;;
64244;SDS011;50584;29.058;-110.966;2022-08-11T17:30:35;0.70;;;0.70;;
64244;SDS011;50584;29.058;-110.966;2022-08-11T17:33:21;1.00;;;1.00;;
64244;SDS011;50584;29.058;-110.966;2022-08-11T17:36:06;1.13;;;0.80;;
64244;SDS011;50584;29.058;-110.966;2022-08-11T17:38:33;1.70;;;0.80;;
64244;SDS011;50584;29.058;-110.966;2022-08-11T17:41:00;3.25;;;1.10;;
64244;SDS011;50584;29.058;-110.966;2022-08-11T17:43:45;1.15;;;0.88;;
64244;SDS011;50584;29.058;-110.966;2022-08-11T17:46:30;1.63;;;0.98;;
64244;SDS011;50584;29.058;-110.966;2022-08-11T17:49:15;3.50;;;0.90;;
64244;SDS011;50584;29.058;-110.966;2022-08-11T17:51:44;3.80;;;1.10;;
64244;SDS011;50584;29.058;-110.966;2022-08-11T17:54:30;3.35;;;1.38;;
64244;SDS011;50584;29.058;-110.966;2022-08-11T17:57:15;1.10;;;1.10;;
64244;SDS011;50584;29.058;-110.966;2022-08-11T18:00:00;1.45;;;1.17;;
64244;SDS011;50584;29.058;-110.966;2022-08-11T18:05:14;4.10;;;1.00;;
64244;SDS011;50584;29.058;-110.966;2022-08-11T18:07:42;0.90;;;0.90;;
64244;SDS011;50584;29.058;-110.966;2022-08-11T18:10:30;1.27;;;1.27;;
64244;SDS011;50584;29.058;-110.966;2022-08-11T18:13:16;1.80;;;0.95;;
64244;SDS011;50584;29.058;-110.966;2022-08-11T18:16:00;1.25;;;1.15;;
64244;SDS011;50584;29.058;-110.966;2022-08-11T18:18:44;1.90;;;0.82;;
64244;SDS011;50584;29.058;-110.966;2022-08-11T18:21:28;0.85;;;0.80;;
64244;SDS011;50584;29.058;-110.966;2022-08-11T18:24:13;2.20;;;1.15;;
64244;SDS011;50584;29.058;-110.966;2022-08-11T18:26:59;3.17;;;0.90;;
64244;SDS011;50584;29.058;-110.966;2022-08-11T18:29:44;1.20;;;1.20;;
64244;SDS011;50584;29.058;-110.966;2022-08-11T18:32:31;1.77;;;1.00;;
64244;SDS011;50584;29.058;-110.966;2022-08-11T18:35:15;2.03;;;1.20;;
64244;SDS011;50584;29.058;-110.966;2022-08-11T18:38:02;1.70;;;1.60;;